sensor_id;sensor_type;location;lat;lon;timestamp;pressure;altitude;pressure_sealevel;temperature;humidity
70833;BME280;71099;59.528;17.886;2023-12-22T00:02:07;96060.50;;;0.65;100.00
70833;BME280;71099;59.528;17.886;2023-12-22T00:04:32;96049.00;;;0.69;100.00
70833;BME280;71099;59.528;17.886;2023-12-22T00:06:58;96037.88;;;0.77;100.00
70833;BME280;71099;59.528;17.886;2023-12-22T00:09:23;96042.94;;;0.70;100.00
70833;BME280;71099;59.528;17.886;2023-12-22T00:11:48;96047.22;;;0.63;100.00
70833;BME280;71099;59.528;17.886;2023-12-22T00:14:14;96052.69;;;0.60;100.00
70833;BME280;71099;59.528;17.886;2023-12-22T00:16:39;96055.44;;;0.65;100.00
70833;BME280;71099;59.528;17.886;2023-12-22T00:19:05;96049.19;;;0.61;100.00
70833;BME280;71099;59.528;17.886;2023-12-22T00:21:30;96042.75;;;0.65;100.00
70833;BME280;71099;59.528;17.886;2023-12-22T00:23:57;96046.66;;;0.68;100.00
70833;BME280;71099;59.528;17.886;2023-12-22T00:26:22;96033.97;;;0.55;100.00
70833;BME280;71099;59.528;17.886;2023-12-22T00:28:48;96033.56;;;0.71;100.00
70833;BME280;71099;59.528;17.886;2023-12-22T00:31:13;96040.22;;;0.65;100.00
70833;BME280;71099;59.528;17.886;2023-12-22T00:33:39;96034.53;;;0.70;100.00
70833;BME280;71099;59.528;17.886;2023-12-22T00:36:04;96032.03;;;0.76;100.00
70833;BME280;71099;59.528;17.886;2023-12-22T00:38:30;96042.16;;;0.63;100.00
70833;BME280;71099;59.528;17.886;2023-12-22T00:40:56;96045.69;;;0.69;100.00
70833;BME280;71099;59.528;17.886;2023-12-22T00:43:21;96052.72;;;0.80;100.00
70833;BME280;71099;59.528;17.886;2023-12-22T00:45:47;96051.34;;;0.71;100.00
70833;BME280;71099;59.528;17.886;2023-12-22T00:48:12;96049.78;;;0.76;100.00
70833;BME280;71099;59.528;17.886;2023-12-22T00:50:38;96056.97;;;0.66;100.00
70833;BME280;71099;59.528;17.886;2023-12-22T00:53:03;96050.75;;;0.62;100.00
70833;BME280;71099;59.528;17.886;2023-12-22T00:55:29;96061.69;;;0.69;100.00
70833;BME280;71099;59.528;17.886;2023-12-22T00:57:54;96060.13;;;0.62;100.00
70833;BME280;71099;59.528;17.886;2023-12-22T01:00:19;96058.56;;;0.61;100.00
70833;BME280;71099;59.528;17.886;2023-12-22T01:02:45;96059.91;;;0.63;100.00
70833;BME280;71099;59.528;17.886;2023-12-22T01:05:10;96073.94;;;0.59;100.00
70833;BME280;71099;59.528;17.886;2023-12-22T01:07:36;96062.84;;;0.60;100.00
70833;BME280;71099;59.528;17.886;2023-12-22T01:10:01;96069.47;;;0.61;100.00
70833;BME280;71099;59.528;17.886;2023-12-22T01:12:29;96061.28;;;0.53;100.00
70833;BME280;71099;59.528;17.886;2023-12-22T01:14:55;96075.69;;;0.52;100.00
70833;BME280;71099;59.528;17.886;2023-12-22T01:17:21;96057.78;;;0.54;100.00
70833;BME280;71099;59.528;17.886;2023-12-22T01:19:46;96069.09;;;0.51;100.00
70833;BME280;71099;59.528;17.886;2023-12-22T01:22:12;96062.44;;;0.57;100.00
70833;BME280;71099;59.528;17.886;2023-12-22T01:24:37;96076.88;;;0.63;100.00
70833;BME280;71099;59.528;17.886;2023-12-22T01:27:06;96066.56;;;0.51;100.00
70833;BME280;71099;59.528;17.886;2023-12-22T01:29:31;96060.88;;;0.49;100.00
70833;BME280;71099;59.528;17.886;2023-12-22T01:31:57;96065.56;;;0.52;100.00
70833;BME280;71099;59.528;17.886;2023-12-22T01:34:22;96075.91;;;0.51;100.00
70833;BME280;71099;59.528;17.886;2023-12-22T01:36:48;96060.88;;;0.42;100.00
70833;BME280;71099;59.528;17.886;2023-12-22T01:39:15;96067.50;;;0.50;100.00
70833;BME280;71099;59.528;17.886;2023-12-22T01:41:40;96062.00;;;0.33;100.00
70833;BME280;71099;59.528;17.886;2023-12-22T01:44:06;96071.00;;;0.36;100.00
70833;BME280;71099;59.528;17.886;2023-12-22T01:46:31;96058.72;;;0.33;100.00
70833;BME280;71099;59.528;17.886;2023-12-22T01:48:58;96066.91;;;0.35;100.00
70833;BME280;71099;59.528;17.886;2023-12-22T01:51:26;96077.81;;;0.35;100.00
70833;BME280;71099;59.528;17.886;2023-12-22T01:53:52;96071.97;;;0.35;100.00
70833;BME280;71099;59.528;17.886;2023-12-22T01:56:18;96072.19;;;0.46;100.00
70833;BME280;71099;59.528;17.886;2023-12-22T01:58:44;96072.94;;;0.34;100.00
70833;BME280;71099;59.528;17.886;2023-12-22T02:01:10;96077.63;;;0.37;100.00
70833;BME280;71099;59.528;17.886;2023-12-22T02:03:36;96065.94;;;0.42;100.00
70833;BME280;71099;59.528;17.886;2023-12-22T02:06:02;96062.41;;;0.37;100.00
70833;BME280;71099;59.528;17.886;2023-12-22T02:08:31;96060.88;;;0.36;100.00
70833;BME280;71099;59.528;17.886;2023-12-22T02:10:58;96078.78;;;0.28;100.00
70833;BME280;71099;59.528;17.886;2023-12-22T02:13:23;96072.53;;;0.30;100.00
70833;BME280;71099;59.528;17.886;2023-12-22T02:15:54;96074.09;;;0.25;100.00
70833;BME280;71099;59.528;17.886;2023-12-22T02:18:25;96079.97;;;0.32;100.00
70833;BME280;71099;59.528;17.886;2023-12-22T02:20:52;96077.44;;;0.32;100.00
70833;BME280;71099;59.528;17.886;2023-12-22T02:23:18;96077.22;;;0.27;100.00
70833;BME280;71099;59.528;17.886;2023-12-22T02:25:43;96075.44;;;0.21;100.00
70833;BME280;71099;59.528;17.886;2023-12-22T02:28:12;96078.16;;;0.19;100.00
70833;BME280;71099;59.528;17.886;2023-12-22T02:33:15;96076.81;;;0.17;100.00
70833;BME280;71099;59.528;17.886;2023-12-22T02:35:41;96083.84;;;0.21;100.00
70833;BME280;71099;59.528;17.886;2023-12-22T02:38:08;96077.38;;;0.19;100.00
70833;BME280;71099;59.528;17.886;2023-12-22T02:40:34;96084.97;;;0.19;100.00
70833;BME280;71099;59.528;17.886;2023-12-22T02:43:01;96084.78;;;0.14;100.00
70833;BME280;71099;59.528;17.886;2023-12-22T02:45:27;96079.50;;;0.09;100.00
70833;BME280;71099;59.528;17.886;2023-12-22T02:47:53;96076.97;;;0.09;100.00
70833;BME280;71099;59.528;17.886;2023-12-22T02:50:18;96088.06;;;0.08;100.00
70833;BME280;71099;59.528;17.886;2023-12-22T02:52:43;96081.44;;;0.00;100.00
70833;BME280;71099;59.528;17.886;2023-12-22T02:55:09;96082.97;;;-0.06;100.00
70833;BME280;71099;59.528;17.886;2023-12-22T02:57:34;96092.53;;;-0.01;100.00
70833;BME280;71099;59.528;17.886;2023-12-22T03:00:00;96087.66;;;-0.03;100.00
70833;BME280;71099;59.528;17.886;2023-12-22T03:02:26;96091.53;;;-0.07;100.00
70833;BME280;71099;59.528;17.886;2023-12-22T03:04:51;96097.41;;;0.00;100.00
70833;BME280;71099;59.528;17.886;2023-12-22T03:07:17;96089.19;;;-0.08;100.00
70833;BME280;71099;59.528;17.886;2023-12-22T03:09:43;96089.22;;;-0.02;100.00
70833;BME280;71099;59.528;17.886;2023-12-22T03:12:09;96093.69;;;-0.04;100.00
70833;BME280;71099;59.528;17.886;2023-12-22T03:14:35;96082.97;;;-0.06;100.00
70833;BME280;71099;59.528;17.886;2023-12-22T03:17:02;96086.06;;;-0.10;100.00
70833;BME280;71099;59.528;17.886;2023-12-22T03:19:27;96090.34;;;-0.11;100.00
70833;BME280;71099;59.528;17.886;2023-12-22T03:21:53;96084.69;;;-0.13;100.00
70833;BME280;71099;59.528;17.886;2023-12-22T03:24:18;96103.00;;;-0.11;100.00
70833;BME280;71099;59.528;17.886;2023-12-22T03:26:45;96111.41;;;-0.04;100.00
70833;BME280;71099;59.528;17.886;2023-12-22T03:29:11;96102.66;;;-0.08;100.00
70833;BME280;71099;59.528;17.886;2023-12-22T03:31:36;96110.25;;;-0.08;100.00
70833;BME280;71099;59.528;17.886;2023-12-22T03:34:01;96110.69;;;0.03;100.00
70833;BME280;71099;59.528;17.886;2023-12-22T03:36:27;96105.94;;;-0.07;100.00
70833;BME280;71099;59.528;17.886;2023-12-22T03:38:52;96104.00;;;-0.12;100.00
70833;BME280;71099;59.528;17.886;2023-12-22T03:41:18;96120.31;;;-0.21;100.00
70833;BME280;71099;59.528;17.886;2023-12-22T03:43:43;96118.72;;;-0.22;100.00
70833;BME280;71099;59.528;17.886;2023-12-22T03:46:08;96119.34;;;-0.20;100.00
70833;BME280;71099;59.528;17.886;2023-12-22T03:48:34;96133.22;;;-0.16;100.00
70833;BME280;71099;59.528;17.886;2023-12-22T03:51:00;96130.06;;;-0.18;100.00
70833;BME280;71099;59.528;17.886;2023-12-22T03:53:25;96127.75;;;-0.13;100.00
70833;BME280;71099;59.528;17.886;2023-12-22T03:55:51;96136.69;;;-0.17;100.00
70833;BME280;71099;59.528;17.886;2023-12-22T03:58:16;96129.34;;;-0.12;100.00
70833;BME280;71099;59.528;17.886;2023-12-22T04:00:42;96134.81;;;-0.08;100.00
70833;BME280;71099;59.528;17.886;2023-12-22T04:03:07;96138.69;;;-0.06;100.00
70833;BME280;71099;59.528;17.886;2023-12-22T04:05:32;96118.41;;;-0.12;100.00
70833;BME280;71099;59.528;17.886;2023-12-22T04:07:58;96142.16;;;-0.13;100.00
70833;BME280;71099;59.528;17.886;2023-12-22T04:10:23;96144.53;;;-0.12;100.00
70833;BME280;71099;59.528;17.886;2023-12-22T04:12:49;96149.59;;;-0.12;100.00
70833;BME280;71099;59.528;17.886;2023-12-22T04:15:14;96149.94;;;-0.15;100.00
70833;BME280;71099;59.528;17.886;2023-12-22T04:17:40;96151.56;;;-0.07;100.00
70833;BME280;71099;59.528;17.886;2023-12-22T04:20:06;96156.59;;;-0.14;100.00
70833;BME280;71099;59.528;17.886;2023-12-22T04:22:32;96150.31;;;-0.18;100.00
70833;BME280;71099;59.528;17.886;2023-12-22T04:24:58;96166.94;;;-0.09;100.00
70833;BME280;71099;59.528;17.886;2023-12-22T04:27:23;96171.06;;;-0.08;100.00
70833;BME280;71099;59.528;17.886;2023-12-22T04:29:49;96168.66;;;-0.16;100.00
70833;BME280;71099;59.528;17.886;2023-12-22T04:32:14;96175.34;;;-0.08;100.00
70833;BME280;71099;59.528;17.886;2023-12-22T04:34:39;96183.50;;;-0.13;100.00
70833;BME280;71099;59.528;17.886;2023-12-22T04:37:05;96189.75;;;-0.09;100.00
70833;BME280;71099;59.528;17.886;2023-12-22T04:39:30;96185.41;;;-0.15;100.00
70833;BME280;71099;59.528;17.886;2023-12-22T04:41:56;96189.31;;;-0.19;100.00
70833;BME280;71099;59.528;17.886;2023-12-22T04:44:21;96188.94;;;-0.16;100.00
70833;BME280;71099;59.528;17.886;2023-12-22T04:46:46;96189.75;;;-0.09;100.00
70833;BME280;71099;59.528;17.886;2023-12-22T04:49:12;96213.53;;;-0.10;100.00
70833;BME280;71099;59.528;17.886;2023-12-22T04:51:37;96203.75;;;-0.13;100.00
70833;BME280;71099;59.528;17.886;2023-12-22T04:54:03;96194.00;;;-0.16;100.00
70833;BME280;71099;59.528;17.886;2023-12-22T04:56:28;96207.28;;;-0.07;100.00
70833;BME280;71099;59.528;17.886;2023-12-22T04:58:54;96209.59;;;-0.19;100.00
70833;BME280;71099;59.528;17.886;2023-12-22T05:01:19;96209.22;;;-0.16;100.00
70833;BME280;71099;59.528;17.886;2023-12-22T05:03:46;96210.75;;;-0.15;100.00
70833;BME280;71099;59.528;17.886;2023-12-22T05:06:11;96216.25;;;-0.11;100.00
70833;BME280;71099;59.528;17.886;2023-12-22T05:08:37;96220.88;;;-0.15;100.00
70833;BME280;71099;59.528;17.886;2023-12-22T05:11:02;96206.13;;;-0.11;100.00
70833;BME280;71099;59.528;17.886;2023-12-22T05:13:28;96221.88;;;-0.16;100.00
70833;BME280;71099;59.528;17.886;2023-12-22T05:15:53;96224.03;;;-0.13;100.00
70833;BME280;71099;59.528;17.886;2023-12-22T05:18:20;96220.13;;;-0.15;100.00
70833;BME280;71099;59.528;17.886;2023-12-22T05:20:45;96218.97;;;-0.13;100.00
70833;BME280;71099;59.528;17.886;2023-12-22T05:23:11;96231.63;;;-0.13;100.00
70833;BME280;71099;59.528;17.886;2023-12-22T05:25:37;96238.88;;;-0.03;100.00
70833;BME280;71099;59.528;17.886;2023-12-22T05:28:02;96244.13;;;-0.11;100.00
70833;BME280;71099;59.528;17.886;2023-12-22T05:30:28;96251.53;;;-0.10;100.00
70833;BME280;71099;59.528;17.886;2023-12-22T05:32:53;96248.53;;;-0.20;100.00
70833;BME280;71099;59.528;17.886;2023-12-22T05:35:20;96230.97;;;-0.21;100.00
70833;BME280;71099;59.528;17.886;2023-12-22T05:37:46;96260.84;;;-0.17;100.00
70833;BME280;71099;59.528;17.886;2023-12-22T05:40:11;96259.88;;;-0.16;100.00
70833;BME280;71099;59.528;17.886;2023-12-22T05:42:37;96265.72;;;-0.15;100.00
70833;BME280;71099;59.528;17.886;2023-12-22T05:45:03;96268.06;;;-0.14;100.00
70833;BME280;71099;59.528;17.886;2023-12-22T05:47:28;96274.88;;;-0.14;100.00
70833;BME280;71099;59.528;17.886;2023-12-22T05:49:54;96277.22;;;-0.13;100.00
70833;BME280;71099;59.528;17.886;2023-12-22T05:52:19;96277.81;;;-0.11;100.00
70833;BME280;71099;59.528;17.886;2023-12-22T05:54:45;96276.28;;;-0.12;100.00
70833;BME280;71099;59.528;17.886;2023-12-22T05:57:10;96280.13;;;-0.16;100.00
70833;BME280;71099;59.528;17.886;2023-12-22T05:59:35;96277.81;;;-0.11;100.00
70833;BME280;71099;59.528;17.886;2023-12-22T06:02:01;96295.34;;;-0.16;100.00
70833;BME280;71099;59.528;17.886;2023-12-22T06:04:28;96295.34;;;-0.16;100.00
70833;BME280;71099;59.528;17.886;2023-12-22T06:06:53;96304.31;;;-0.13;100.00
70833;BME280;71099;59.528;17.886;2023-12-22T06:09:19;96305.09;;;-0.13;100.00
70833;BME280;71099;59.528;17.886;2023-12-22T06:11:46;96310.59;;;-0.09;100.00
70833;BME280;71099;59.528;17.886;2023-12-22T06:14:11;96320.31;;;-0.13;100.00
70833;BME280;71099;59.528;17.886;2023-12-22T06:16:37;96319.88;;;-0.16;100.00
70833;BME280;71099;59.528;17.886;2023-12-22T06:19:02;96325.00;;;-0.10;100.00
70833;BME280;71099;59.528;17.886;2023-12-22T06:21:28;96327.53;;;-0.10;100.00
70833;BME280;71099;59.528;17.886;2023-12-22T06:23:54;96328.50;;;-0.11;100.00
70833;BME280;71099;59.528;17.886;2023-12-22T06:26:19;96339.78;;;-0.13;100.00
70833;BME280;71099;59.528;17.886;2023-12-22T06:28:45;96333.50;;;-0.17;100.00
70833;BME280;71099;59.528;17.886;2023-12-22T06:31:18;96333.94;;;-0.14;100.00
70833;BME280;71099;59.528;17.886;2023-12-22T06:33:45;96349.66;;;-0.18;100.00
70833;BME280;71099;59.528;17.886;2023-12-22T06:36:22;96345.16;;;-0.23;100.00
70833;BME280;71099;59.528;17.886;2023-12-22T06:38:49;96346.50;;;-0.27;100.00
70833;BME280;71099;59.528;17.886;2023-12-22T06:41:22;96353.66;;;-0.30;100.00
70833;BME280;71099;59.528;17.886;2023-12-22T06:43:48;96357.94;;;-0.31;100.00
70833;BME280;71099;59.528;17.886;2023-12-22T06:46:15;96362.13;;;-0.23;100.00
70833;BME280;71099;59.528;17.886;2023-12-22T06:48:41;96366.56;;;-0.25;100.00
70833;BME280;71099;59.528;17.886;2023-12-22T06:51:06;96365.81;;;-0.26;100.00
70833;BME280;71099;59.528;17.886;2023-12-22T06:53:31;96371.19;;;-0.29;100.00
70833;BME280;71099;59.528;17.886;2023-12-22T06:55:57;96382.19;;;-0.22;100.00
70833;BME280;71099;59.528;17.886;2023-12-22T06:58:22;96380.53;;;-0.29;100.00
70833;BME280;71099;59.528;17.886;2023-12-22T07:00:51;96381.75;;;-0.25;100.00
70833;BME280;71099;59.528;17.886;2023-12-22T07:03:16;96379.13;;;-0.17;100.00
70833;BME280;71099;59.528;17.886;2023-12-22T07:05:43;96386.53;;;-0.16;100.00
70833;BME280;71099;59.528;17.886;2023-12-22T07:08:08;96391.59;;;-0.16;100.00
70833;BME280;71099;59.528;17.886;2023-12-22T07:10:33;96395.47;;;-0.20;100.00
70833;BME280;71099;59.528;17.886;2023-12-22T07:12:59;96408.25;;;-0.28;100.00
70833;BME280;71099;59.528;17.886;2023-12-22T07:15:24;96410.66;;;-0.20;100.00
70833;BME280;71099;59.528;17.886;2023-12-22T07:17:49;96416.94;;;-0.16;100.00
70833;BME280;71099;59.528;17.886;2023-12-22T07:20:15;96427.44;;;-0.19;100.00
70833;BME280;71099;59.528;17.886;2023-12-22T07:22:40;96437.31;;;-0.24;100.00
70833;BME280;71099;59.528;17.886;2023-12-22T07:25:06;96429.81;;;-0.32;100.00
70833;BME280;71099;59.528;17.886;2023-12-22T07:27:33;96435.25;;;-0.35;100.00
70833;BME280;71099;59.528;17.886;2023-12-22T07:29:58;96446.84;;;-0.26;100.00
70833;BME280;71099;59.528;17.886;2023-12-22T07:32:24;96460.13;;;-0.24;100.00
70833;BME280;71099;59.528;17.886;2023-12-22T07:34:49;96452.78;;;-0.19;100.00
70833;BME280;71099;59.528;17.886;2023-12-22T07:37:14;96463.25;;;-0.22;100.00
70833;BME280;71099;59.528;17.886;2023-12-22T07:39:40;96451.19;;;-0.20;100.00
70833;BME280;71099;59.528;17.886;2023-12-22T07:42:06;96461.94;;;-0.18;100.00
70833;BME280;71099;59.528;17.886;2023-12-22T07:44:32;96462.72;;;-0.17;100.00
70833;BME280;71099;59.528;17.886;2023-12-22T07:47:00;96471.94;;;-0.10;100.00
70833;BME280;71099;59.528;17.886;2023-12-22T07:49:26;96462.97;;;-0.12;100.00
70833;BME280;71099;59.528;17.886;2023-12-22T07:51:52;96470.75;;;-0.14;100.00
70833;BME280;71099;59.528;17.886;2023-12-22T07:54:18;96473.91;;;-0.12;100.00
70833;BME280;71099;59.528;17.886;2023-12-22T07:56:43;96487.47;;;-0.19;100.00
70833;BME280;71099;59.528;17.886;2023-12-22T07:59:09;96487.25;;;-0.18;100.00
70833;BME280;71099;59.528;17.886;2023-12-22T08:01:34;96490.59;;;-0.17;100.00
70833;BME280;71099;59.528;17.886;2023-12-22T08:04:00;96501.94;;;-0.13;100.00
70833;BME280;71099;59.528;17.886;2023-12-22T08:06:25;96496.69;;;-0.12;100.00
70833;BME280;71099;59.528;17.886;2023-12-22T08:08:51;96506.22;;;-0.14;100.00
70833;BME280;71099;59.528;17.886;2023-12-22T08:11:16;96513.28;;;-0.09;100.00
70833;BME280;71099;59.528;17.886;2023-12-22T08:13:41;96509.00;;;-0.09;100.00
70833;BME280;71099;59.528;17.886;2023-12-22T08:16:07;96510.59;;;-0.08;100.00
70833;BME280;71099;59.528;17.886;2023-12-22T08:18:32;96519.50;;;-0.12;100.00
70833;BME280;71099;59.528;17.886;2023-12-22T08:20:58;96518.09;;;-0.14;100.00
70833;BME280;71099;59.528;17.886;2023-12-22T08:23:23;96525.53;;;-0.13;100.00
70833;BME280;71099;59.528;17.886;2023-12-22T08:25:48;96510.31;;;-0.13;100.00
70833;BME280;71099;59.528;17.886;2023-12-22T08:28:14;96521.47;;;-0.07;100.00
70833;BME280;71099;59.528;17.886;2023-12-22T08:30:40;96518.00;;;-0.06;100.00
70833;BME280;71099;59.528;17.886;2023-12-22T08:33:05;96528.13;;;-0.06;100.00
70833;BME280;71099;59.528;17.886;2023-12-22T08:35:30;96526.13;;;-0.11;100.00
70833;BME280;71099;59.528;17.886;2023-12-22T08:37:56;96528.56;;;-0.03;100.00
70833;BME280;71099;59.528;17.886;2023-12-22T08:40:22;96533.38;;;-0.08;100.00
70833;BME280;71099;59.528;17.886;2023-12-22T08:42:51;96535.31;;;-0.10;100.00
70833;BME280;71099;59.528;17.886;2023-12-22T08:45:20;96527.19;;;-0.20;100.00
70833;BME280;71099;59.528;17.886;2023-12-22T08:47:46;96539.25;;;-0.22;100.00
70833;BME280;71099;59.528;17.886;2023-12-22T08:50:11;96533.06;;;-0.19;100.00
70833;BME280;71099;59.528;17.886;2023-12-22T08:52:38;96543.13;;;-0.26;100.00
70833;BME280;71099;59.528;17.886;2023-12-22T08:55:05;96538.28;;;-0.21;100.00
70833;BME280;71099;59.528;17.886;2023-12-22T08:57:31;96543.53;;;-0.08;100.00
70833;BME280;71099;59.528;17.886;2023-12-22T08:59:57;96541.22;;;-0.03;100.00
70833;BME280;71099;59.528;17.886;2023-12-22T09:02:22;96546.38;;;-0.11;100.00
70833;BME280;71099;59.528;17.886;2023-12-22T09:04:48;96546.69;;;-0.20;100.00
70833;BME280;71099;59.528;17.886;2023-12-22T09:07:13;96546.31;;;-0.17;100.00
70833;BME280;71099;59.528;17.886;2023-12-22T09:09:39;96554.19;;;-0.12;100.00
70833;BME280;71099;59.528;17.886;2023-12-22T09:12:05;96557.50;;;-0.12;100.00
70833;BME280;71099;59.528;17.886;2023-12-22T09:14:31;96553.91;;;-0.17;100.00
70833;BME280;71099;59.528;17.886;2023-12-22T09:16:56;96560.72;;;-0.18;100.00
70833;BME280;71099;59.528;17.886;2023-12-22T09:19:22;96561.53;;;-0.17;100.00
70833;BME280;71099;59.528;17.886;2023-12-22T09:21:47;96562.31;;;-0.17;100.00
70833;BME280;71099;59.528;17.886;2023-12-22T09:24:12;96568.59;;;-0.13;100.00
70833;BME280;71099;59.528;17.886;2023-12-22T09:26:38;96560.03;;;-0.12;100.00
70833;BME280;71099;59.528;17.886;2023-12-22T09:29:03;96556.28;;;-0.16;100.00
70833;BME280;71099;59.528;17.886;2023-12-22T09:31:28;96553.41;;;-0.13;100.00
70833;BME280;71099;59.528;17.886;2023-12-22T09:33:54;96553.41;;;-0.13;100.00
70833;BME280;71099;59.528;17.886;2023-12-22T09:36:19;96561.94;;;-0.14;100.00
70833;BME280;71099;59.528;17.886;2023-12-22T09:38:45;96558.81;;;-0.16;100.00
70833;BME280;71099;59.528;17.886;2023-12-22T09:41:10;96556.09;;;-0.14;100.00
70833;BME280;71099;59.528;17.886;2023-12-22T09:43:36;96563.38;;;-0.26;100.00
70833;BME280;71099;59.528;17.886;2023-12-22T09:46:02;96569.31;;;-0.19;100.00
70833;BME280;71099;59.528;17.886;2023-12-22T09:48:29;96569.31;;;-0.19;100.00
70833;BME280;71099;59.528;17.886;2023-12-22T09:50:55;96569.47;;;-0.20;100.00
70833;BME280;71099;59.528;17.886;2023-12-22T09:53:21;96577.94;;;-0.13;100.00
70833;BME280;71099;59.528;17.886;2023-12-22T09:55:49;96574.88;;;-0.09;100.00
70833;BME280;71099;59.528;17.886;2023-12-22T09:58:15;96577.59;;;-0.10;100.00
70833;BME280;71099;59.528;17.886;2023-12-22T10:00:43;96573.56;;;-0.05;100.00
70833;BME280;71099;59.528;17.886;2023-12-22T10:03:10;96578.81;;;-0.06;100.00
70833;BME280;71099;59.528;17.886;2023-12-22T10:05:42;96583.94;;;0.00;100.00
70833;BME280;71099;59.528;17.886;2023-12-22T10:08:09;96590.22;;;0.05;100.00
70833;BME280;71099;59.528;17.886;2023-12-22T10:10:41;96583.63;;;0.04;100.00
70833;BME280;71099;59.528;17.886;2023-12-22T10:13:07;96583.63;;;0.04;100.00
70833;BME280;71099;59.528;17.886;2023-12-22T10:15:38;96582.41;;;-0.01;100.00
70833;BME280;71099;59.528;17.886;2023-12-22T10:18:07;96589.38;;;-0.03;100.00
70833;BME280;71099;59.528;17.886;2023-12-22T10:20:34;96585.53;;;0.02;100.00
70833;BME280;71099;59.528;17.886;2023-12-22T10:23:00;96591.75;;;-0.01;100.00
70833;BME280;71099;59.528;17.886;2023-12-22T10:25:29;96588.50;;;-0.10;100.00
70833;BME280;71099;59.528;17.886;2023-12-22T10:28:00;96580.75;;;-0.08;100.00
70833;BME280;71099;59.528;17.886;2023-12-22T10:30:27;96585.25;;;-0.04;100.00
70833;BME280;71099;59.528;17.886;2023-12-22T10:32:53;96587.91;;;0.03;100.00
70833;BME280;71099;59.528;17.886;2023-12-22T10:35:22;96586.91;;;0.04;100.00
70833;BME280;71099;59.528;17.886;2023-12-22T10:37:48;96585.88;;;-0.02;100.00
70833;BME280;71099;59.528;17.886;2023-12-22T10:40:17;96584.22;;;0.06;100.00
70833;BME280;71099;59.528;17.886;2023-12-22T10:42:42;96593.47;;;0.13;100.00
70833;BME280;71099;59.528;17.886;2023-12-22T10:45:08;96589.88;;;0.08;100.00
70833;BME280;71099;59.528;17.886;2023-12-22T10:47:34;96601.94;;;0.06;100.00
70833;BME280;71099;59.528;17.886;2023-12-22T10:50:02;96601.84;;;0.14;100.00
70833;BME280;71099;59.528;17.886;2023-12-22T10:52:29;96597.03;;;0.19;100.00
70833;BME280;71099;59.528;17.886;2023-12-22T10:54:57;96590.13;;;0.13;100.00
70833;BME280;71099;59.528;17.886;2023-12-22T10:57:22;96597.38;;;0.16;100.00
70833;BME280;71099;59.528;17.886;2023-12-22T10:59:48;96604.41;;;0.14;100.00
70833;BME280;71099;59.528;17.886;2023-12-22T11:02:16;96595.63;;;0.16;100.00
70833;BME280;71099;59.528;17.886;2023-12-22T11:04:47;96600.91;;;0.15;100.00
70833;BME280;71099;59.528;17.886;2023-12-22T11:07:19;96597.44;;;0.22;100.00
70833;BME280;71099;59.528;17.886;2023-12-22T11:09:49;96600.53;;;0.18;100.00
70833;BME280;71099;59.528;17.886;2023-12-22T11:12:16;96598.69;;;0.12;100.00
70833;BME280;71099;59.528;17.886;2023-12-22T11:14:42;96600.22;;;0.06;100.00
70833;BME280;71099;59.528;17.886;2023-12-22T11:17:09;96595.66;;;0.02;100.00
70833;BME280;71099;59.528;17.886;2023-12-22T11:19:36;96584.66;;;-0.06;100.00
70833;BME280;71099;59.528;17.886;2023-12-22T11:22:03;96588.69;;;0.04;100.00
70833;BME280;71099;59.528;17.886;2023-12-22T11:24:31;96591.03;;;0.05;100.00
70833;BME280;71099;59.528;17.886;2023-12-22T11:26:58;96593.13;;;0.02;100.00
70833;BME280;71099;59.528;17.886;2023-12-22T11:29:26;96594.09;;;0.00;100.00
70833;BME280;71099;59.528;17.886;2023-12-22T11:31:54;96601.44;;;-0.05;100.00
70833;BME280;71099;59.528;17.886;2023-12-22T11:34:21;96589.31;;;-0.09;100.00
70833;BME280;71099;59.528;17.886;2023-12-22T11:36:47;96597.69;;;-0.09;100.00
70833;BME280;71099;59.528;17.886;2023-12-22T11:39:14;96598.84;;;-0.11;100.00
70833;BME280;71099;59.528;17.886;2023-12-22T11:41:40;96602.84;;;-0.17;100.00
70833;BME280;71099;59.528;17.886;2023-12-22T11:44:07;96610.72;;;-0.12;100.00
70833;BME280;71099;59.528;17.886;2023-12-22T11:46:33;96605.66;;;-0.12;100.00
70833;BME280;71099;59.528;17.886;2023-12-22T11:48:59;96609.13;;;-0.13;100.00
70833;BME280;71099;59.528;17.886;2023-12-22T11:51:31;96611.84;;;-0.14;100.00
70833;BME280;71099;59.528;17.886;2023-12-22T11:53:57;96606.69;;;-0.21;100.00
70833;BME280;71099;59.528;17.886;2023-12-22T11:56:24;96604.78;;;-0.19;100.00
70833;BME280;71099;59.528;17.886;2023-12-22T11:58:52;96613.41;;;-0.13;100.00
70833;BME280;71099;59.528;17.886;2023-12-22T12:01:23;96609.94;;;-0.12;100.00
70833;BME280;71099;59.528;17.886;2023-12-22T12:03:57;96607.47;;;-0.06;100.00
70833;BME280;71099;59.528;17.886;2023-12-22T12:09:04;96613.50;;;-0.07;100.00
70833;BME280;71099;59.528;17.886;2023-12-22T12:14:22;96601.81;;;-0.08;100.00
70833;BME280;71099;59.528;17.886;2023-12-22T12:16:48;96620.13;;;-0.06;100.00
70833;BME280;71099;59.528;17.886;2023-12-22T12:19:14;96609.94;;;-0.12;100.00
70833;BME280;71099;59.528;17.886;2023-12-22T12:21:40;96619.28;;;-0.13;100.00
70833;BME280;71099;59.528;17.886;2023-12-22T12:24:05;96624.78;;;-0.09;100.00
70833;BME280;71099;59.528;17.886;2023-12-22T12:26:33;96626.16;;;-0.07;100.00
70833;BME280;71099;59.528;17.886;2023-12-22T12:28:59;96640.78;;;-0.09;100.00
70833;BME280;71099;59.528;17.886;2023-12-22T12:31:44;96626.59;;;-0.18;100.00
70833;BME280;71099;59.528;17.886;2023-12-22T12:34:10;96629.31;;;-0.19;100.00
70833;BME280;71099;59.528;17.886;2023-12-22T12:36:37;96628.63;;;-0.13;100.00
70833;BME280;71099;59.528;17.886;2023-12-22T12:39:08;96631.00;;;-0.12;100.00
70833;BME280;71099;59.528;17.886;2023-12-22T12:41:39;96635.00;;;-0.03;100.00
70833;BME280;71099;59.528;17.886;2023-12-22T12:44:06;96638.22;;;-0.09;100.00
70833;BME280;71099;59.528;17.886;2023-12-22T12:46:34;96628.47;;;-0.12;100.00